createdAt,value
2018-08-03T00:01:47.808Z,99.90
2018-08-03T00:04:16.696Z,99.90
2018-08-03T00:06:45.290Z,99.90
2018-08-03T00:09:14.056Z,99.90
2018-08-03T00:11:42.754Z,99.90
2018-08-03T00:14:11.408Z,99.90
2018-08-03T00:16:40.099Z,99.90
2018-08-03T00:19:09.052Z,99.90
2018-08-03T00:21:38.203Z,99.90
2018-08-03T00:24:07.108Z,99.90
2018-08-03T00:26:35.954Z,99.90
2018-08-03T00:29:04.678Z,99.90
2018-08-03T00:31:33.365Z,99.90
2018-08-03T00:34:02.388Z,99.90
2018-08-03T00:36:31.291Z,99.90
2018-08-03T00:38:59.959Z,99.90
2018-08-03T00:41:28.801Z,99.90
2018-08-03T00:43:57.387Z,99.90
2018-08-03T00:46:26.025Z,99.90
2018-08-03T00:48:54.970Z,99.90
2018-08-03T00:51:24.465Z,99.90
2018-08-03T00:53:53.391Z,99.90
2018-08-03T00:56:22.235Z,99.90
2018-08-03T00:58:51.081Z,99.90
2018-08-03T01:01:19.683Z,99.90
2018-08-03T01:03:48.386Z,99.90
2018-08-03T01:06:17.024Z,99.90
2018-08-03T01:08:45.731Z,99.90
2018-08-03T01:11:14.439Z,99.90
2018-08-03T01:13:43.080Z,99.90
2018-08-03T01:16:11.679Z,99.90
2018-08-03T01:21:08.535Z,99.90
2018-08-03T01:23:37.469Z,99.90
2018-08-03T01:26:06.291Z,99.90
2018-08-03T01:28:35.559Z,99.90
2018-08-03T01:31:04.160Z,99.90
2018-08-03T01:33:32.810Z,99.90
2018-08-03T01:36:01.623Z,99.90
2018-08-03T01:38:30.442Z,99.90
2018-08-03T01:40:59.156Z,99.90
2018-08-03T01:43:27.861Z,99.90
2018-08-03T01:45:56.701Z,99.90
2018-08-03T01:48:25.656Z,99.90
2018-08-03T01:50:54.244Z,99.90
2018-08-03T01:53:22.888Z,99.90
2018-08-03T01:55:51.487Z,99.90
2018-08-03T01:58:20.136Z,99.90
2018-08-03T02:00:49.019Z,99.90
2018-08-03T02:03:17.690Z,99.90
2018-08-03T02:05:46.436Z,99.90
2018-08-03T02:08:15.294Z,99.90
2018-08-03T02:13:14.186Z,99.90
2018-08-03T02:15:43.253Z,99.90
2018-08-03T02:18:11.961Z,99.90
2018-08-03T02:20:40.614Z,99.90
2018-08-03T02:23:09.624Z,99.90
2018-08-03T02:25:38.604Z,99.90
2018-08-03T02:28:07.322Z,99.90
2018-08-03T02:30:36.016Z,99.90
2018-08-03T02:33:05.330Z,99.90
2018-08-03T02:35:34.132Z,99.90
2018-08-03T02:38:02.826Z,99.90
2018-08-03T02:40:32.148Z,99.90
2018-08-03T02:43:00.970Z,99.90
2018-08-03T02:45:29.578Z,99.90
2018-08-03T02:47:58.251Z,99.90
2018-08-03T02:50:27.320Z,99.90
2018-08-03T02:52:56.619Z,99.90
2018-08-03T02:55:25.455Z,99.90
2018-08-03T02:57:54.337Z,99.90
2018-08-03T03:00:23.741Z,99.90
2018-08-03T03:02:52.645Z,99.90
2018-08-03T03:05:21.369Z,99.90
2018-08-03T03:07:50.913Z,99.90
2018-08-03T03:10:19.553Z,99.90
2018-08-03T03:12:48.551Z,99.90
2018-08-03T03:15:17.261Z,99.90
2018-08-03T03:17:46.161Z,99.90
2018-08-03T03:20:14.797Z,99.90
2018-08-03T03:25:11.929Z,99.90
2018-08-03T03:27:41.030Z,99.90
2018-08-03T03:30:09.789Z,99.90
2018-08-03T03:32:38.911Z,99.90
2018-08-03T03:35:07.484Z,99.90
2018-08-03T03:37:36.129Z,99.90
2018-08-03T03:40:04.867Z,99.90
2018-08-03T03:42:33.553Z,99.90
2018-08-03T03:45:02.239Z,99.90
2018-08-03T03:47:30.968Z,99.90
2018-08-03T03:49:59.650Z,99.90
2018-08-03T03:52:28.351Z,99.90
2018-08-03T03:54:57.170Z,99.90
2018-08-03T03:57:25.756Z,99.90
2018-08-03T03:59:55.096Z,99.90
2018-08-03T04:02:23.904Z,99.90
2018-08-03T04:04:52.765Z,99.90
2018-08-03T04:07:21.692Z,99.90
2018-08-03T04:09:50.317Z,99.90
2018-08-03T04:12:19.074Z,99.90
2018-08-03T04:14:47.690Z,99.90
2018-08-03T04:17:17.046Z,99.90
2018-08-03T04:19:45.766Z,99.90
2018-08-03T04:22:14.368Z,99.90
2018-08-03T04:27:11.448Z,99.90
2018-08-03T04:29:40.228Z,99.90
2018-08-03T04:32:08.857Z,99.90
2018-08-03T04:34:37.642Z,99.90
2018-08-03T04:37:06.394Z,99.90
2018-08-03T04:39:35.464Z,99.90
2018-08-03T04:44:32.595Z,99.90
2018-08-03T04:47:01.563Z,99.90
2018-08-03T04:49:30.990Z,99.90
2018-08-03T04:51:59.739Z,99.90
2018-08-03T04:54:29.098Z,99.90
2018-08-03T04:56:57.704Z,99.90
2018-08-03T04:59:26.559Z,99.90
2018-08-03T05:01:55.277Z,99.90
2018-08-03T05:04:23.893Z,99.90
2018-08-03T05:06:52.998Z,99.90
2018-08-03T05:09:22.103Z,99.90
2018-08-03T05:11:50.758Z,99.90
2018-08-03T05:14:19.365Z,99.90
2018-08-03T05:16:48.135Z,99.90
2018-08-03T05:19:17.115Z,99.90
2018-08-03T05:21:45.795Z,99.90
2018-08-03T05:24:14.725Z,99.90
2018-08-03T05:26:43.414Z,99.90
2018-08-03T05:29:12.003Z,99.90
2018-08-03T05:31:40.656Z,99.90
2018-08-03T05:34:09.319Z,99.90
2018-08-03T05:36:38.025Z,99.90
2018-08-03T05:39:09.075Z,99.90
2018-08-03T05:41:38.160Z,99.90
2018-08-03T05:44:07.558Z,99.90
2018-08-03T05:46:36.431Z,99.90
2018-08-03T05:49:05.464Z,99.90
2018-08-03T05:51:34.410Z,99.90
2018-08-03T05:56:32.207Z,99.90
2018-08-03T05:59:00.978Z,99.90
2018-08-03T06:01:29.670Z,99.90
2018-08-03T06:03:58.360Z,99.90
2018-08-03T06:06:27.717Z,99.90
2018-08-03T06:11:25.430Z,99.90
2018-08-03T06:13:54.432Z,99.90
2018-08-03T06:16:23.296Z,99.90
2018-08-03T06:18:52.049Z,99.90
2018-08-03T06:21:20.692Z,99.90
2018-08-03T06:23:49.330Z,99.90
2018-08-03T06:26:18.360Z,99.90
2018-08-03T06:28:47.019Z,99.90
2018-08-03T06:31:15.674Z,99.90
2018-08-03T06:33:44.297Z,99.90
2018-08-03T06:36:12.921Z,99.90
2018-08-03T06:38:41.551Z,99.90
2018-08-03T06:41:10.485Z,99.90
2018-08-03T06:43:39.887Z,99.90
2018-08-03T06:46:08.540Z,99.90
2018-08-03T06:48:37.642Z,99.90
2018-08-03T06:51:06.337Z,99.90
2018-08-03T06:53:34.946Z,99.90
2018-08-03T06:56:03.840Z,99.90
2018-08-03T06:58:32.549Z,99.90
2018-08-03T07:01:01.210Z,99.90
2018-08-03T07:05:58.049Z,99.90
2018-08-03T07:08:26.878Z,99.90
2018-08-03T07:10:55.550Z,99.90
2018-08-03T07:13:24.440Z,99.90
2018-08-03T07:15:53.593Z,99.90
2018-08-03T07:18:22.180Z,99.90
2018-08-03T07:20:50.949Z,99.90
2018-08-03T07:23:20.528Z,99.90
2018-08-03T07:25:49.272Z,99.90
2018-08-03T07:28:17.954Z,99.90
2018-08-03T07:30:46.566Z,99.90
2018-08-03T07:33:15.737Z,99.90
2018-08-03T07:35:44.729Z,99.90
2018-08-03T07:38:13.849Z,99.90
2018-08-03T07:40:42.537Z,99.90
2018-08-03T07:43:11.193Z,99.90
2018-08-03T07:45:39.805Z,99.90
2018-08-03T07:48:08.595Z,99.90
2018-08-03T07:50:37.669Z,99.90
2018-08-03T07:55:35.579Z,99.90
2018-08-03T08:00:33.619Z,99.90
2018-08-03T08:03:02.265Z,99.90
2018-08-03T08:05:31.047Z,99.90
2018-08-03T08:07:59.621Z,99.90
2018-08-03T08:10:28.479Z,99.90
2018-08-03T08:12:57.209Z,99.90
2018-08-03T08:15:25.977Z,99.90
2018-08-03T08:17:55.096Z,99.90
2018-08-03T08:20:24.699Z,99.90
2018-08-03T08:22:53.302Z,99.90
2018-08-03T08:25:22.465Z,99.90
2018-08-03T08:27:51.230Z,99.90
2018-08-03T08:30:19.952Z,99.90
2018-08-03T08:32:48.651Z,99.90
2018-08-03T08:35:17.750Z,99.90
2018-08-03T08:37:46.430Z,99.90
2018-08-03T08:40:15.529Z,99.90
2018-08-03T08:42:44.168Z,99.90
2018-08-03T08:45:12.849Z,99.90
2018-08-03T08:47:41.454Z,99.90
2018-08-03T08:50:10.512Z,99.90
2018-08-03T08:52:39.300Z,99.90
2018-08-03T08:55:07.952Z,99.90
2018-08-03T08:57:36.805Z,99.90
2018-08-03T09:00:06.072Z,99.90
2018-08-03T09:02:35.213Z,99.90
2018-08-03T09:05:03.916Z,99.90
2018-08-03T09:07:32.504Z,99.90
2018-08-03T09:51:52.942Z,99.90
2018-08-03T09:56:50.769Z,99.90
2018-08-03T09:59:19.588Z,99.90
2018-08-03T10:01:48.418Z,99.90
2018-08-03T10:04:17.192Z,99.90
2018-08-03T10:06:45.897Z,99.90
2018-08-03T10:09:14.640Z,99.90
2018-08-03T10:11:43.258Z,99.90
2018-08-03T10:14:12.257Z,99.90
2018-08-03T10:24:40.549Z,97.60
2018-08-03T10:27:09.678Z,98.70
2018-08-03T10:29:38.376Z,96.60
2018-08-03T10:32:06.978Z,96.70
2018-08-03T10:34:35.714Z,94.10
2018-08-03T10:37:04.727Z,93.60
2018-08-03T10:39:33.505Z,91.30
2018-08-03T11:13:06.662Z,92.10
2018-08-03T11:15:35.348Z,90.90
2018-08-03T11:18:04.292Z,91.60
2018-08-03T11:20:33.048Z,90.90
2018-08-03T11:23:01.825Z,90.90
2018-08-03T11:25:30.686Z,90.50
2018-08-03T11:27:59.567Z,89.10
2018-08-03T11:32:57.981Z,82.70
2018-08-03T11:35:26.808Z,84.80
2018-08-03T11:37:56.303Z,82.30
2018-08-03T11:40:25.194Z,82.00
2018-08-03T11:42:54.095Z,79.70
2018-08-03T11:45:23.883Z,80.50
2018-08-03T11:47:57.555Z,79.40
2018-08-03T11:50:26.334Z,75.10
2018-08-03T11:55:23.556Z,70.90
2018-08-03T11:57:54.522Z,68.50
2018-08-03T12:00:23.288Z,69.20
2018-08-03T12:02:51.987Z,68.20
2018-08-03T12:05:20.759Z,67.40
2018-08-03T12:07:49.568Z,68.30
2018-08-03T12:10:18.640Z,65.10
2018-08-03T12:12:47.529Z,66.30
2018-08-03T12:15:16.195Z,64.90
2018-08-03T12:17:44.998Z,66.60
2018-08-03T12:20:14.751Z,67.30
2018-08-03T12:22:43.995Z,64.80
2018-08-03T12:25:12.837Z,67.80
2018-08-03T12:27:41.766Z,65.70
2018-08-03T12:30:10.363Z,67.40
2018-08-03T12:32:39.364Z,68.30
2018-08-03T12:51:14.790Z,63.20
2018-08-03T12:53:46.716Z,62.90
2018-08-03T12:56:16.141Z,62.70
2018-08-03T12:58:44.923Z,62.70
2018-08-03T13:01:13.686Z,64.80
2018-08-03T13:03:42.722Z,62.20
2018-08-03T13:06:11.620Z,61.80
2018-08-03T13:08:40.372Z,61.10
2018-08-03T13:11:09.040Z,61.00
2018-08-03T13:13:38.274Z,58.30
2018-08-03T13:16:07.324Z,56.80
2018-08-03T13:18:36.694Z,59.70
2018-08-03T13:22:16.952Z,54.10
2018-08-03T13:24:45.892Z,57.30
2018-08-03T13:27:14.575Z,55.10
2018-08-03T13:29:43.620Z,54.40
2018-08-03T13:58:28.774Z,46.70
2018-08-03T14:01:08.712Z,49.30
2018-08-03T14:03:37.320Z,49.30
2018-08-03T14:06:08.252Z,49.10
2018-08-03T14:08:37.075Z,49.60
2018-08-03T14:11:06.037Z,50.60
2018-08-03T14:13:34.918Z,49.00
2018-08-03T14:18:32.320Z,49.50
2018-08-03T14:21:01.078Z,49.90
2018-08-03T14:23:30.131Z,49.80
2018-08-03T14:25:59.140Z,48.00
2018-08-03T14:31:10.263Z,47.20
2018-08-03T14:36:07.858Z,48.70
2018-08-03T14:38:36.827Z,49.90
2018-08-03T14:41:05.928Z,49.30
2018-08-03T14:43:34.875Z,48.30
2018-08-03T14:46:04.013Z,47.70
2018-08-03T14:48:33.280Z,47.90
2018-08-03T14:51:01.971Z,45.60
2018-08-03T14:53:30.996Z,48.20
2018-08-03T14:55:59.850Z,47.50
2018-08-03T14:58:28.770Z,50.10
2018-08-03T15:00:57.448Z,50.50
2018-08-03T15:03:26.277Z,50.20
2018-08-03T15:05:55.336Z,50.20
2018-08-03T15:08:24.651Z,49.00
2018-08-03T15:10:54.693Z,49.30
2018-08-03T15:13:23.801Z,50.20
2018-08-03T15:15:52.556Z,47.70
2018-08-03T15:18:21.176Z,48.80
2018-08-03T15:20:49.820Z,48.70
2018-08-03T15:23:18.486Z,50.30
2018-08-03T15:28:15.759Z,51.40
2018-08-03T15:30:44.366Z,51.90
2018-08-03T15:33:13.058Z,51.90
2018-08-03T15:35:42.005Z,50.90
2018-08-03T15:38:10.623Z,52.80
2018-08-03T15:40:40.458Z,54.50
2018-08-03T15:43:09.276Z,50.00
2018-08-03T15:45:38.685Z,50.80
2018-08-03T15:48:07.470Z,52.90
2018-08-03T15:53:04.549Z,54.30
2018-08-03T15:58:02.000Z,52.80
2018-08-03T16:00:30.649Z,51.30
2018-08-03T16:02:59.227Z,52.00
2018-08-03T16:05:28.528Z,53.70
2018-08-03T16:07:57.321Z,51.60
2018-08-03T16:10:26.025Z,50.70
2018-08-03T16:12:55.040Z,50.80
2018-08-03T16:15:23.681Z,51.60
2018-08-03T16:17:53.641Z,51.60
2018-08-03T16:20:22.224Z,52.40
2018-08-03T16:22:50.858Z,52.60
2018-08-03T16:25:19.616Z,52.60
2018-08-03T16:27:48.700Z,52.50
2018-08-03T16:30:17.250Z,51.30
2018-08-03T16:32:46.224Z,50.90
2018-08-03T16:35:14.849Z,51.00
2018-08-03T16:37:44.432Z,51.60
2018-08-03T16:40:13.005Z,51.60
2018-08-03T16:42:41.751Z,52.60
2018-08-03T16:45:10.378Z,52.20
2018-08-03T16:47:39.128Z,51.60
2018-08-03T16:50:08.313Z,52.90
2018-08-03T16:52:36.983Z,53.90
2018-08-03T16:55:06.171Z,56.10
2018-08-03T16:57:34.828Z,57.30
2018-08-03T17:00:03.881Z,58.20
2018-08-03T17:02:32.682Z,58.40
2018-08-03T17:05:01.446Z,58.60
2018-08-03T17:07:30.751Z,60.30
2018-08-03T17:10:00.114Z,61.70
2018-08-03T17:12:29.119Z,62.20
2018-08-03T17:14:57.809Z,63.30
2018-08-03T17:17:26.772Z,63.50
2018-08-03T17:22:24.178Z,62.00
2018-08-03T17:24:53.287Z,59.70
2018-08-03T17:27:22.202Z,59.70
2018-08-03T17:29:51.115Z,59.40
2018-08-03T17:32:19.717Z,59.40
2018-08-03T17:34:48.658Z,57.10
2018-08-03T17:37:18.154Z,54.80
2018-08-03T17:39:47.225Z,55.10
2018-08-03T17:42:16.089Z,57.40
2018-08-03T17:44:44.796Z,59.10
2018-08-03T17:47:13.786Z,60.70
2018-08-03T17:49:42.600Z,62.20
2018-08-03T17:52:11.237Z,63.20
2018-08-03T17:57:08.691Z,61.40
2018-08-03T17:59:37.344Z,61.40
2018-08-03T18:02:06.208Z,60.80
2018-08-03T18:04:35.240Z,58.80
2018-08-03T18:07:04.208Z,57.70
2018-08-03T18:09:33.383Z,56.90
2018-08-03T18:12:02.296Z,56.30
2018-08-03T18:14:31.018Z,57.20
2018-08-03T18:16:59.914Z,59.20
2018-08-03T18:21:57.112Z,62.00
2018-08-03T18:24:25.724Z,63.40
2018-08-03T18:26:54.874Z,65.00
2018-08-03T18:29:23.882Z,66.70
2018-08-03T18:31:52.770Z,68.50
2018-08-03T18:34:21.364Z,70.10
2018-08-03T18:36:49.943Z,71.50
2018-08-03T18:39:18.553Z,73.00
2018-08-03T18:41:47.266Z,74.50
2018-08-03T18:44:16.866Z,74.80
2018-08-03T18:46:45.500Z,75.60
2018-08-03T18:49:14.878Z,74.50
2018-08-03T18:51:43.820Z,75.70
2018-08-03T18:54:12.678Z,76.30
2018-08-03T18:56:41.290Z,77.70
2018-08-03T18:59:10.973Z,79.30
2018-08-03T19:01:39.561Z,80.30
2018-08-03T19:04:08.679Z,81.30
2018-08-03T19:06:37.398Z,81.70
2018-08-03T19:09:07.633Z,82.20
2018-08-03T19:11:36.362Z,83.00
2018-08-03T19:14:05.237Z,84.10
2018-08-03T19:16:33.937Z,84.40
2018-08-03T19:19:02.900Z,85.00
2018-08-03T19:21:31.763Z,85.60
2018-08-03T19:24:01.094Z,86.50
2018-08-03T19:26:29.705Z,88.70
2018-08-03T19:28:58.401Z,90.00
2018-08-03T19:31:27.132Z,90.60
2018-08-03T19:33:55.934Z,90.90
2018-08-03T19:36:24.921Z,91.20
2018-08-03T19:38:53.621Z,91.50
2018-08-03T19:41:22.437Z,91.90
2018-08-03T19:43:51.164Z,92.20
2018-08-03T19:46:20.226Z,92.70
2018-08-03T19:48:49.085Z,93.10
2018-08-03T19:51:18.228Z,93.60
2018-08-03T19:53:46.900Z,94.20
2018-08-03T19:56:15.636Z,94.90
2018-08-03T19:58:44.578Z,95.40
2018-08-03T20:01:13.354Z,96.40
2018-08-03T20:03:42.199Z,97.00
2018-08-03T20:06:11.609Z,97.50
2018-08-03T20:08:40.417Z,98.10
2018-08-03T20:13:37.834Z,99.60
2018-08-03T20:16:06.726Z,99.90
2018-08-03T20:18:35.870Z,99.90
2018-08-03T20:21:04.812Z,99.90
2018-08-03T20:23:34.105Z,99.90
2018-08-03T20:26:03.238Z,99.90
2018-08-03T20:28:32.168Z,99.90
2018-08-03T20:31:01.611Z,99.90
2018-08-03T20:33:30.332Z,99.90
2018-08-03T20:35:59.275Z,99.90
2018-08-03T20:38:28.075Z,99.90
2018-08-03T20:40:56.977Z,99.90
2018-08-03T20:43:25.901Z,99.90
2018-08-03T20:45:54.609Z,99.90
2018-08-03T20:48:23.643Z,99.90
2018-08-03T20:50:52.650Z,99.90
2018-08-03T20:53:21.947Z,99.90
2018-08-03T20:55:50.788Z,99.90
2018-08-03T20:58:19.938Z,99.90
2018-08-03T21:00:49.551Z,99.90
2018-08-03T21:03:18.665Z,99.90
2018-08-03T21:05:47.546Z,99.90
2018-08-03T21:08:16.897Z,99.90
2018-08-03T21:10:45.797Z,99.90
2018-08-03T21:13:14.420Z,99.90
2018-08-03T21:18:11.261Z,99.90
2018-08-03T21:20:39.993Z,99.90
2018-08-03T21:23:08.806Z,99.90
2018-08-03T21:25:37.431Z,99.90
2018-08-03T21:28:06.335Z,99.90
2018-08-03T21:30:35.029Z,99.90
2018-08-03T21:33:03.709Z,99.90
2018-08-03T21:35:32.551Z,99.90
2018-08-03T21:38:01.537Z,99.90
2018-08-03T21:40:30.184Z,99.90
2018-08-03T21:42:59.058Z,99.90
2018-08-03T21:45:27.848Z,99.90
2018-08-03T21:50:24.977Z,99.90
2018-08-03T21:52:53.634Z,99.90
2018-08-03T21:55:22.363Z,99.90
2018-08-03T21:57:51.174Z,99.90
2018-08-03T22:00:22.609Z,99.90
2018-08-03T22:02:51.359Z,99.90
2018-08-03T22:05:20.933Z,99.90
2018-08-03T22:07:49.626Z,99.90
2018-08-03T22:10:19.117Z,99.90
2018-08-03T22:12:47.706Z,99.90
2018-08-03T22:15:16.494Z,99.90
2018-08-03T22:17:45.296Z,99.90
2018-08-03T22:20:13.993Z,99.90
2018-08-03T22:22:43.215Z,99.90
2018-08-03T22:27:40.345Z,99.90
2018-08-03T22:30:09.019Z,99.90
2018-08-03T22:32:37.853Z,99.90
2018-08-03T22:35:07.442Z,99.90
2018-08-03T22:37:36.033Z,99.90
2018-08-03T22:40:05.071Z,99.90
2018-08-03T22:42:33.864Z,99.90
2018-08-03T22:45:02.817Z,99.90
2018-08-03T22:47:31.444Z,99.90
2018-08-03T22:50:01.302Z,99.90
2018-08-03T22:52:29.902Z,99.90
2018-08-03T22:57:27.281Z,99.90
2018-08-03T22:59:55.960Z,99.90
2018-08-03T23:04:53.160Z,99.90
2018-08-03T23:07:21.728Z,99.90
2018-08-03T23:09:51.812Z,99.90
2018-08-03T23:12:21.156Z,99.90
2018-08-03T23:14:50.139Z,99.90
2018-08-03T23:17:18.961Z,99.90
2018-08-03T23:19:48.136Z,99.90
2018-08-03T23:22:16.996Z,99.90
2018-08-03T23:24:46.102Z,99.90
2018-08-03T23:27:14.891Z,99.90
2018-08-03T23:29:43.638Z,99.90
2018-08-03T23:32:12.813Z,99.90
2018-08-03T23:34:41.748Z,99.90
2018-08-03T23:37:10.835Z,99.90
2018-08-03T23:42:07.698Z,99.90
2018-08-03T23:44:36.680Z,99.90
2018-08-03T23:47:05.986Z,99.90
2018-08-03T23:49:35.110Z,99.90
2018-08-03T23:52:03.949Z,99.90
2018-08-03T23:54:32.929Z,99.90
2018-08-03T23:57:01.891Z,99.90
2018-08-03T23:59:31.242Z,99.90
